Tiempo atmosférico en la estación meteorológica de Zarza La Mayor, Cáceres (336 m.)



Fecha
DESCASC
Temp. máxima en grados centígrados (hora)
DESCASC
Temp. mínima en grados centígrados (hora)
DESCASC
Temp. media en grados centígrados
DESCASC
Racha de viento máxima en m/sg (hora)
DESCASC
Velocidad máxima media en intervalos de 10 minutos(hora)
DESCASC
Precipitaciones diarias en mm
DESCASC
Precipitaciones de 00:00 a 06:00 en mm
DESCASC
Precipitaciones de 06:00 a 12:00 en mm
DESCASC
Precipitaciones de 12:00 a 18:00 en mm
DESCASC
Precipitaciones de 18:00 a 24:00 en mm
DESCASC
23-06-2019 30.7 (15:50) 16.1 (07:00) 23.4 10.83 (15:50) 5.83 (21:20) 0 0 0 0 0
22-06-2019 32.8 (16:20) 15.3 (07:10) 24 12.5 (17:30) 6.94 (17:20) 0 0 0 0 0
21-06-2019 31 (17:30) 13.6 (07:10) 22.3 8.33 (21:00) 4.17 (00:10) 0 0 0 0 0
20-06-2019 28.4 (17:00) 15.4 (00:00) 21.9 12.22 (18:50) 7.5 (19:30) 0 0 0 0 0
19-06-2019 26.6 (17:00) 16.7 (00:00) 21.7 9.17 (18:40) 6.11 (14:00) 0 0 0 0 0
18-06-2019 26.3 (19:50) 12.3 (00:00) 19.3 16.11 (15:30) 10 (15:30) 0 0 0 0 0
17-06-2019 31.1 (16:10) 12.8 (00:00) 22 15.83 (16:10) 6.94 (16:20) 0 0 0 0 0
16-06-2019 31.7 (18:00) 12.4 (00:00) 22.1 9.72 (21:20) 6.67 (20:40) 0 0 0 0 0
15-06-2019 27.4 (19:30) 9.4 (00:00) 18.4 11.11 (17:40) 4.17 (01:40) 0 0 0 0 0
14-06-2019 23 (15:00) 7.8 (00:00) 15.4 13.06 (17:50) 8.61 (16:30) 0 0 0 0 0
13-06-2019 27.6 (17:20) 8.8 (00:00) 18.2 9.44 (21:10) 6.39 (21:10) 0 0 0 0 0
12-06-2019 27.9 (18:50) 11.8 (00:00) 19.8 11.11 (21:10) 7.22 (21:10) 0 0 0 0 0
11-06-2019 24.8 (17:50) 12.7 (00:00) 18.7 13.33 (12:40) 8.06 (15:20) 0 0 0 0 0
10-06-2019 28.1 (18:10) 11.1 (00:00) 19.6 11.94 (21:10) 7.5 (20:30) 0 0 0 0 0
09-06-2019 27.7 (17:40) 8.9 (00:00) 18.3 11.94 (16:10) 7.78 (20:50) 0 0 0 0 0
08-06-2019 28.4 (17:10) 11.2 (00:00) 19.8 9.72 (22:10) 6.67 (21:30) 0 0 0 0 0
07-06-2019 23.4 (18:50) 8.1 (00:00) 15.8 9.17 (17:10) 5.83 (03:40) 0 0 0 0 0
06-06-2019 23.2 (17:20) 8.3 (00:00) 15.8 15 (20:10) 9.72 (20:10) 0.2 0 0 0 0.2
05-06-2019 23 (17:10) 9.9 (00:00) 16.4 11.39 (17:40) 7.5 (15:00) 0 0 0 0 0
04-06-2019 26 (15:30) 14.1 (00:00) 20.1 14.17 (16:20) 9.44 (16:20) 0 0 0 0 0
03-06-2019 32.9 (16:30) 17.5 (00:00) 25.2 11.94 (19:30) 7.78 (19:20) 0 0 0 0 0
02-06-2019 36.9 (17:10) 20.8 (00:00) 28.9 12.5 (17:30) 8.06 (19:40) 0 0 0 0 0
01-06-2019 36.8 (16:00) 19.7 (00:00) 28.3 7.22 (11:10) 4.44 (08:50) 0 0 0 0 0
31-05-2019 35.2 (17:20) 19.6 (00:00) 27.4 10.28 (13:20) 4.72 (16:30) 0 0 0 0 0
30-05-2019 33.3 (19:10) 18.7 (00:00) 26 10.83 (15:00) 6.39 (09:40) 0 0 0 0 0
29-05-2019 31 (17:40) 16.6 (00:00) 23.8 10 (04:20) 5.28 (04:30) 0 0 0 0 0
28-05-2019 30 (18:00) 16.6 (00:00) 23.3 10.83 (15:10) 7.22 (21:00) 0 0 0 0 0

Gráficas

Temp. máximas Temp. mínimas Temp. medias Precipitaciones Rachas de viento máximas Velocidades máximas media en intervalos de 10 minutos

Datos horarios

Fecha y hora oficial Temperatura (ºC) Velocidad del viento (km/h) Dirección del viento Racha (km/h) Dirección de racha Precipitación (mm) Presión (hPa) Tendencia (hPa) Humedad (%)
2019-06-26 23:00:00 25.2 17 Sudoeste 29 Sur 0 -- -- 51
2019-06-26 22:00:00 27.9 12 Sur 27 Sudeste 0 -- -- 33
2019-06-26 21:00:00 29.8 12 Sur 35 Sudoeste 0 -- -- 30
2019-06-26 20:00:00 30.5 21 Sur 37 Sur 0 -- -- 29
2019-06-26 19:00:00 30.7 24 Sur 37 Sur 0 -- -- 29
2019-06-26 18:00:00 30.7 18 Sur 44 Sudeste 0 -- -- 29
2019-06-26 17:00:00 30.4 21 Sur 42 Sur 0 -- -- 30
2019-06-26 16:00:00 29.7 16 Sudeste 42 Sur 0 -- -- 34
2019-06-26 15:00:00 27.9 21 Sur 41 Sur 0 -- -- 38
2019-06-26 14:00:00 27.9 18 Sur 35 Sur 0 -- -- 39
2019-06-26 13:00:00 27.1 18 Sur 33 Sur 0 -- -- 46
2019-06-26 12:00:00 24.3 4 Sudoeste 20 Sudoeste 0 -- -- 55
2019-06-26 11:00:00 23.7 5 Sur 12 Este 0 -- -- 59
2019-06-26 10:00:00 22.2 6 Oeste 13 Oeste 0 -- -- 64
2019-06-26 09:00:00 19.8 7 Sudoeste 14 Sudoeste 0 -- -- 72
2019-06-26 08:00:00 18.5 6 Oeste 13 Sudoeste 0 -- -- 78
2019-06-26 07:00:00 17.3 3 Oeste 14 Sudoeste 0 -- -- 79
2019-06-26 06:00:00 18 2 Oeste 12 Sudoeste 0 -- -- 77
2019-06-26 05:00:00 18.9 6 Sudoeste 10 Sudoeste 0 -- -- 74
2019-06-26 04:00:00 19.6 3 Sudoeste 16 Sudoeste 0 -- -- 70
2019-06-26 03:00:00 20.5 14 Sudoeste 23 Sudoeste 0 -- -- 68
2019-06-26 02:00:00 21.4 15 Sudoeste 22 Sudoeste 0 -- -- 62
2019-06-26 01:00:00 22.9 12 Sudoeste 16 Sudoeste 0 -- -- 52
2019-06-26 00:00:00 24.5 5 Oeste 14 Oeste 0 -- -- 48
2019-06-25 23:00:00 26 8 Oeste 14 Sudoeste 0 -- -- 43
2019-06-25 22:00:00 28.1 8 Oeste 22 Oeste 0 -- -- 38
2019-06-25 21:00:00 31.4 13 Sudoeste 27 Sur 0 -- -- 31
2019-06-25 20:00:00 31.2 15 Sur 28 Sur 0 -- -- 29
2019-06-25 19:00:00 31.4 10 Sudeste 26 Sudoeste 0 -- -- 29
2019-06-25 18:00:00 32 14 Sudoeste 32 Sudoeste 0 -- -- 29
2019-06-25 17:00:00 32.1 17 Sudoeste 28 Sudoeste 0 -- -- 28
2019-06-25 16:00:00 30.3 4 Norte 25 Sudeste 0 -- -- 32
2019-06-25 15:00:00 28.4 10 Sudeste 23 Sur 0 -- -- 35
2019-06-25 14:00:00 28 10 Sudeste 22 Este 0 -- -- 38
2019-06-25 13:00:00 26.8 5 Sur 16 Sur 0 -- -- 41
2019-06-25 12:00:00 24.9 6 Oeste 15 Oeste 0 -- -- 45
2019-06-25 11:00:00 22.5 6 Noroeste 13 Noroeste 0 -- -- 55
2019-06-25 10:00:00 18.5 4 Noroeste 7 Noroeste 0 -- -- 71
2019-06-25 09:00:00 16.9 2 Noroeste 6 Nordeste 0 -- -- 77
2019-06-25 08:00:00 15 0 Calma 9 Oeste 0 -- -- 85
2019-06-25 07:00:00 14.7 0 Calma 3 Oeste 0 -- -- 84
2019-06-25 06:00:00 14.5 0 Calma 4 Nordeste 0 -- -- 83
2019-06-25 05:00:00 15 3 Noroeste 6 Sudoeste 0 -- -- 81
2019-06-25 04:00:00 15.7 0 Calma 5 Oeste 0 -- -- 78
2019-06-25 03:00:00 15.8 0 Calma 3 Sudoeste 0 -- -- 76
2019-06-25 02:00:00 15.9 0 Calma 8 Oeste 0 -- -- 77
2019-06-25 01:00:00 16.2 5 Oeste 8 Oeste 0 -- -- 74
2019-06-25 00:00:00 16.2 4 Oeste 7 Oeste 0 -- -- 72
2019-06-24 23:00:00 16.4 6 Sudoeste 12 Oeste 0 -- -- 68
2019-06-24 22:00:00 17.6 3 Oeste 8 Oeste 0 -- -- 60
2019-06-24 21:00:00 19.1 3 Noroeste 16 Oeste 0 -- -- 58
2019-06-24 20:00:00 17.6 6 Noroeste 13 Oeste 0 -- -- 63
2019-06-24 19:00:00 15.8 9 Noroeste 24 Oeste 0 -- -- 72
2019-06-24 18:00:00 15.4 18 Oeste 38 Oeste 0 -- -- 69
2019-06-24 17:00:00 18.6 22 Noroeste 41 Noroeste 0 -- -- 55
2019-06-24 16:00:00 19.5 25 Oeste 39 Oeste 0 -- -- 54
2019-06-24 15:00:00 20.9 22 Oeste 31 Oeste 0 -- -- 55
2019-06-24 14:00:00 19.7 10 Oeste 21 Noroeste 0 -- -- 62
2019-06-24 13:00:00 19.1 13 Oeste 33 Oeste 0 -- -- 61
2019-06-24 12:00:00 21.6 16 Oeste 32 Sudoeste 0 -- -- 50
2019-06-24 11:00:00 21.7 15 Sudoeste 21 Sudoeste 0 -- -- 70
2019-06-24 10:00:00 20.5 9 Oeste 14 Sudoeste 0 -- -- 76
2019-06-24 09:00:00 19.9 6 Sudoeste 12 Sudoeste 0 -- -- 85
2019-06-24 08:00:00 19.1 8 Sudoeste 15 Sudoeste 0 -- -- 90
2019-06-24 07:00:00 19.1 12 Sudoeste 15 Sudoeste 0.2 -- -- 90
2019-06-24 06:00:00 19.6 7 Sudoeste 12 Sudoeste 0 -- -- 87
2019-06-24 05:00:00 20.2 12 Sudoeste 18 Sudoeste 0 -- -- 80
2019-06-24 04:00:00 20.5 9 Sudoeste 14 Sudoeste 0 -- -- 78
2019-06-24 03:00:00 21.1 13 Sudoeste 21 Sudoeste 0 -- -- 74
2019-06-24 02:00:00 21.6 13 Sudoeste 18 Sudoeste 0 -- -- 71
2019-06-24 01:00:00 22.2 12 Sudoeste 19 Sudoeste 0 -- -- 67
2019-06-24 00:00:00 23 10 Oeste 22 Sudoeste 0 -- -- 63
2019-06-23 23:00:00 23.7 13 Oeste 27 Sudoeste 0 -- -- 61
2019-06-23 22:00:00 24.9 18 Sudoeste 32 Oeste 0 -- -- 55
2019-06-23 21:00:00 26.2 17 Sudoeste 32 Oeste 0 -- -- 50
2019-06-23 20:00:00 27.3 17 Oeste 30 Oeste 0 -- -- 45
2019-06-23 19:00:00 28.6 11 Oeste 22 Sudoeste 0 -- -- 40
2019-06-23 18:00:00 29.4 13 Sudoeste 26 Sudoeste 0 -- -- 38
2019-06-23 17:00:00 28.7 17 Sudoeste 30 Sudoeste 0 -- -- 38
2019-06-23 16:00:00 30.1 18 Oeste 39 Sudoeste 0 -- -- 35
2019-06-23 15:00:00 29.3 12 Sur 28 Sudeste 0 -- -- 26
2019-06-23 14:00:00 29.6 6 Sur 30 Sur 0 -- -- 27
2019-06-23 13:00:00 27.8 17 Sur 27 Sudeste 0 -- -- 29
2019-06-23 12:00:00 26 9 Sur 19 Sur 0 -- -- 38
2019-06-23 11:00:00 24.3 5 Oeste 12 Oeste 0 -- -- 45
2019-06-23 10:00:00 21.1 5 Sudoeste 10 Sudoeste 0 -- -- 49
2019-06-23 09:00:00 19.4 6 Oeste 17 Sudoeste 0 -- -- 48
2019-06-23 08:00:00 17.3 9 Sudoeste 20 Sudoeste 0 -- -- 53
2019-06-23 07:00:00 16.1 4 Sudoeste 8 Sur 0 -- -- 50
2019-06-23 06:00:00 17.2 8 Sur 10 Sur 0 -- -- 47
2019-06-23 05:00:00 17.6 4 Sudeste 6 Sudeste 0 -- -- 44
2019-06-23 04:00:00 18.8 7 Sudoeste 18 Sudoeste 0 -- -- 41
2019-06-23 03:00:00 19.9 15 Sudoeste 22 Sudoeste 0 -- -- 41
2019-06-23 02:00:00 20.9 15 Sudoeste 21 Sudoeste 0 -- -- 37
2019-06-23 01:00:00 22.2 12 Sudoeste 18 Sudoeste 0 -- -- 34
2019-06-23 00:00:00 23.4 10 Sudoeste 17 Sudoeste 0 -- -- 25
2019-06-22 23:00:00 24.7 11 Sudoeste 19 Sudoeste 0 -- -- 22
2019-06-22 22:00:00 26.8 14 Sudoeste 28 Sudoeste 0 -- -- 20
2019-06-22 21:00:00 30.1 18 Sudoeste 41 Sudoeste 0 -- -- 15
2019-06-22 20:00:00 31 21 Sudoeste 37 Sudoeste 0 -- -- 12
2019-06-22 19:00:00 31.5 19 Sudoeste 33 Sudoeste 0 -- -- 15
2019-06-22 18:00:00 32 20 Sudoeste 45 Sudoeste 0 -- -- 15
2019-06-22 17:00:00 32.4 17 Sudoeste 41 Sudoeste 0 -- -- 16
2019-06-22 16:00:00 32.7 22 Sudoeste 39 Sur 0 -- -- 19
2019-06-22 15:00:00 31.2 21 Sur 39 Sudeste 0 -- -- 20
2019-06-22 14:00:00 29.5 15 Sur 34 Sudoeste 0 -- -- 25
2019-06-22 13:00:00 29 12 Sur 22 Sudoeste 0 -- -- 27
2019-06-22 12:00:00 27 12 Sur 22 Sudeste 0 -- -- 32
2019-06-22 11:00:00 26.1 13 Sudeste 22 Sudeste 0 -- -- 36
2019-06-22 10:00:00 23.7 8 Este 13 Sudeste 0 -- -- 43
2019-06-22 09:00:00 19.2 2 Noroeste 5 Norte 0 -- -- 59
2019-06-22 08:00:00 16.5 3 Norte 9 Nordeste 0 -- -- 68
2019-06-22 07:00:00 15.5 0 Calma 9 Sudoeste 0 -- -- 69
2019-06-22 06:00:00 16.6 8 Sudoeste 12 Sudoeste 0 -- -- 67
2019-06-22 05:00:00 17.4 5 Sudoeste 10 Sudoeste 0 -- -- 64
2019-06-22 04:00:00 17.9 6 Sudoeste 14 Sudoeste 0 -- -- 62
2019-06-22 03:00:00 19.1 4 Sudoeste 18 Sudoeste 0 -- -- 58
2019-06-22 02:00:00 20.2 13 Sur 18 Sudoeste 0 -- -- 53
2019-06-22 01:00:00 21.8 3 Sudoeste 7 Oeste 0 -- -- 45
2019-06-22 00:00:00 23.3 4 Noroeste 9 Noroeste 0 -- -- 39
2019-06-21 23:00:00 24.5 6 Oeste 15 Norte 0 -- -- 31
2019-06-21 22:00:00 26.7 11 Norte 19 Norte 0 -- -- 28
2019-06-21 21:00:00 29.3 15 Norte 30 Noroeste 0 -- -- 25
2019-06-21 20:00:00 30.4 8 Norte 22 Noroeste 0 -- -- 23
2019-06-21 19:00:00 30.6 8 Oeste 24 Noroeste 0 -- -- 22
2019-06-21 18:00:00 30.7 12 Norte 24 Norte 0 -- -- 23
2019-06-21 17:00:00 30.7 8 Oeste 25 Noroeste 0 -- -- 24
2019-06-21 16:00:00 29.1 7 Noroeste 20 Norte 0 -- -- 28
2019-06-21 15:00:00 29.1 9 Sudoeste 20 Oeste 0 -- -- 29
2019-06-21 14:00:00 27.9 5 Norte 24 Oeste 0 -- -- 31
2019-06-21 13:00:00 26.3 8 Oeste 16 Oeste 0 -- -- 39
2019-06-21 12:00:00 24.9 5 Oeste 14 Sudoeste 0 -- -- 43
2019-06-21 11:00:00 22.9 2 Sur 12 Oeste 0 -- -- 49
2019-06-21 10:00:00 20.3 4 Noroeste 9 Oeste 0 -- -- 57
2019-06-21 09:00:00 16.7 9 Sudoeste 15 Sudoeste 0 -- -- 68
2019-06-21 08:00:00 15 2 Sudoeste 14 Sudoeste 0 -- -- 73
2019-06-21 07:00:00 13.7 5 Sudoeste 13 Oeste 0 -- -- 76
2019-06-21 06:00:00 14.1 7 Sudoeste 13 Sudoeste 0 -- -- 74
2019-06-21 05:00:00 14.4 3 Oeste 11 Sudoeste 0 -- -- 73
2019-06-21 04:00:00 15 7 Sudoeste 15 Sudoeste 0 -- -- 70
2019-06-21 03:00:00 15 6 Sudoeste 16 Sudoeste 0 -- -- 70
2019-06-21 02:00:00 15.9 4 Sudoeste 15 Sudoeste 0 -- -- 66
2019-06-21 01:00:00 16.5 7 Sudoeste 21 Sudoeste 0 -- -- 64
2019-06-21 00:00:00 17.8 14 Sudoeste 22 Sudoeste 0 -- -- 59
2019-06-20 23:00:00 19.3 14 Sudoeste 27 Sudoeste 0 -- -- 54
2019-06-20 22:00:00 21.3 18 Sudoeste 34 Sudoeste 0 -- -- 48
2019-06-20 21:00:00 23.9 24 Sudoeste 38 Sudoeste 0 -- -- 43
2019-06-20 20:00:00 25.7 26 Sudoeste 41 Sudoeste 0 -- -- 40
2019-06-20 19:00:00 27.2 24 Sudoeste 44 Sudoeste 0 -- -- 37
2019-06-20 18:00:00 28.4 13 Sudoeste 30 Sudoeste 0 -- -- 31
2019-06-20 17:00:00 28.4 18 Sudoeste 33 Sudoeste 0 -- -- 32
2019-06-20 16:00:00 27 16 Sudoeste 31 Sudoeste 0 -- -- 35
2019-06-20 15:00:00 26.5 8 Sur 30 Sudoeste 0 -- -- 37
2019-06-20 14:00:00 25.1 8 Sur 25 Sur 0 -- -- 41
2019-06-20 13:00:00 24.6 10 Sur 24 Sur 0 -- -- 43
2019-06-20 12:00:00 23 10 Sudoeste 26 Sudoeste 0 -- -- 50
2019-06-20 11:00:00 20.7 12 Sudoeste 20 Sudoeste 0 -- -- 60
2019-06-20 10:00:00 17.7 6 Sudoeste 13 Sudoeste 0 -- -- 71
2019-06-20 09:00:00 16.3 9 Sudoeste 15 Sudoeste 0 -- -- 77
2019-06-20 08:00:00 15.7 10 Sudoeste 14 Sudoeste 0 -- -- 79
2019-06-20 07:00:00 15.7 4 Oeste 8 Sudoeste 0 -- -- 78
2019-06-20 06:00:00 15.5 5 Sudoeste 15 Sudoeste 0 -- -- 79
2019-06-20 05:00:00 15.7 12 Sudoeste 17 Sur 0 -- -- 77
2019-06-20 04:00:00 16.6 4 Sur 10 Oeste 0 -- -- 72
2019-06-20 03:00:00 17.2 6 Noroeste 14 Noroeste 0 -- -- 70
2019-06-20 02:00:00 17.9 6 Oeste 18 Oeste 0 -- -- 67
2019-06-20 01:00:00 18.6 9 Oeste 19 Noroeste 0 -- -- 65
2019-06-20 00:00:00 20 8 Oeste 18 Sudoeste 0 -- -- 62
2019-06-19 23:00:00 21.3 11 Sudoeste 22 Sudoeste 0 -- -- 56
2019-06-19 22:00:00 22.8 14 Oeste 24 Sudoeste 0 -- -- 52
2019-06-19 21:00:00 24.3 16 Sudoeste 28 Sudoeste 0 -- -- 45
2019-06-19 20:00:00 25.4 18 Sudoeste 27 Sudoeste 0 -- -- 40
2019-06-19 19:00:00 25.6 15 Sudoeste 33 Sudoeste 0 -- -- 41
2019-06-19 18:00:00 25.8 18 Sudoeste 31 Sudoeste 0 -- -- 41
2019-06-19 17:00:00 26.6 10 Oeste 32 Sur 0 -- -- 41
2019-06-19 16:00:00 25 21 Sur -- -- -- -- -- 45
2019-06-19 15:00:00 -- -- -- -- -- -- -- -- --
2019-06-19 14:00:00 -- -- -- -- -- -- -- -- --
2019-06-19 13:00:00 -- -- -- -- -- -- -- -- --
2019-06-19 12:00:00 -- -- -- -- -- -- -- -- --
2019-06-19 11:00:00 -- -- -- -- -- -- -- -- --
2019-06-19 10:00:00 -- -- -- -- -- -- -- -- --
2019-06-19 09:00:00 -- -- -- -- -- -- -- -- --
2019-06-19 08:00:00 -- -- -- -- -- -- -- -- --
2019-06-19 07:00:00 -- -- -- -- -- -- -- -- --
2019-06-19 06:00:00 -- -- -- -- -- -- -- -- --
2019-06-19 05:00:00 -- -- -- -- -- -- -- -- --
2019-06-19 04:00:00 -- -- -- -- -- -- -- -- --
2019-06-19 03:00:00 -- -- -- -- -- -- -- -- --
2019-06-19 02:00:00 -- -- -- -- -- -- -- -- --
2019-06-19 01:00:00 -- -- -- -- -- -- -- -- --
2019-06-19 00:00:00 -- -- -- -- -- -- -- -- --
2019-06-18 23:00:00 -- -- -- -- -- -- -- -- --
2019-06-18 22:00:00 -- -- -- -- -- -- -- -- --
2019-06-18 21:00:00 -- -- -- -- -- -- -- -- --
2019-06-18 20:00:00 -- -- -- -- -- -- -- -- --
2019-06-18 19:00:00 -- -- -- -- -- -- -- -- --
2019-06-18 18:00:00 -- -- -- -- -- -- -- -- --
2019-06-18 17:00:00 -- -- -- -- -- -- -- -- --
2019-06-18 16:00:00 24 31 Sur 58 Sur 0 -- -- 46
2019-06-18 15:00:00 24.1 26 Sur 45 Sur 0 -- -- 45
2019-06-18 14:00:00 20.8 9 Sur 28 Sudoeste 0 -- -- 66
2019-06-18 13:00:00 20.6 24 Sudoeste 37 Oeste 0 -- -- 68
2019-06-18 12:00:00 21.8 14 Sudoeste 30 Sudoeste 0 -- -- 49
2019-06-18 11:00:00 20 8 Sudeste 17 Sur 0 -- -- 47
2019-06-18 10:00:00 17.8 5 Sudeste 12 Sudeste 0 -- -- 62
2019-06-18 09:00:00 15.4 4 Norte 11 Sudoeste 0 -- -- 68
2019-06-18 08:00:00 13.9 4 Oeste 13 Sudoeste 0 -- -- 73
2019-06-18 07:00:00 12.4 6 Sudoeste 14 Sudoeste 0 -- -- 73
2019-06-18 06:00:00 13.2 10 Sudoeste 18 Sudoeste 0 -- -- 61
2019-06-18 05:00:00 15 15 Sudoeste 21 Sudoeste 0 -- -- 57
2019-06-18 04:00:00 16.4 15 Sudoeste 23 Sudoeste 0 -- -- 38
2019-06-18 03:00:00 17.7 11 Sudoeste 17 Sudoeste 0 -- -- 48
2019-06-18 02:00:00 19.2 11 Sudoeste 23 Sudoeste 0 -- -- 47
2019-06-18 01:00:00 20.5 19 Sudoeste 30 Sudoeste 0 -- -- 44
2019-06-18 00:00:00 22.6 21 Sudoeste 30 Sudoeste 0 -- -- 38
2019-06-17 23:00:00 24.4 6 Sudoeste 10 Sudoeste 0 -- -- 32
2019-06-17 22:00:00 25.9 4 Oeste 8 Oeste 0 -- -- 30
2019-06-17 21:00:00 26.9 8 Noroeste 18 Oeste 0 -- -- 28
2019-06-17 20:00:00 28.4 11 Oeste 23 Oeste 0 -- -- 25
2019-06-17 19:00:00 29.6 15 Sudoeste 30 Sur 0 -- -- 18
2019-06-17 18:00:00 29.7 18 Sur 32 Sur 0 -- -- 17
2019-06-17 17:00:00 29.5 17 Sur 57 Sudoeste 0 -- -- 17
2019-06-17 16:00:00 29.5 13 Sudeste 32 Sur 0 -- -- 20
2019-06-17 15:00:00 30 17 Sur 35 Sur 0 -- -- 20
2019-06-17 14:00:00 28.8 13 Sudeste 28 Sur 0 -- -- 24
2019-06-17 13:00:00 27.7 14 Sudeste 28 Sur 0 -- -- 29
2019-06-17 12:00:00 25.2 15 Sur 24 Sur 0 -- -- 34
2019-06-17 11:00:00 23.4 3 Sur 9 Sudeste 0 -- -- 40
2019-06-17 10:00:00 20.5 3 Oeste 6 Noroeste 0 -- -- 49
2019-06-17 09:00:00 18 3 Este 7 Este 0 -- -- 59
2019-06-17 08:00:00 15.2 3 Este 9 Este 0 -- -- 68
2019-06-17 07:00:00 13 0 Calma 5 Noroeste 0 -- -- 75
2019-06-17 06:00:00 14.1 6 Sudoeste 12 Sudoeste 0 -- -- 71
2019-06-17 05:00:00 15.1 5 Sudoeste 10 Oeste 0 -- -- 68
2019-06-17 04:00:00 16.1 5 Sudoeste 14 Sudoeste 0 -- -- 64
2019-06-17 03:00:00 17 2 Noroeste 14 Sudoeste 0 -- -- 59
2019-06-17 02:00:00 18.6 11 Sudoeste 18 Sudoeste 0 -- -- 56
2019-06-17 01:00:00 19.7 4 Oeste 17 Sudoeste 0 -- -- 49
2019-06-17 00:00:00 21.4 12 Sudoeste 22 Sudoeste 0 -- -- 40
2019-06-16 23:00:00 23.3 15 Sudoeste 24 Sudoeste 0 -- -- 32
2019-06-16 22:00:00 25.2 16 Sudoeste 35 Sudoeste 0 -- -- 29
2019-06-16 21:00:00 28.1 23 Sudoeste 33 Oeste 0 -- -- 26
2019-06-16 20:00:00 30 17 Sudoeste 32 Sudoeste 0 -- -- 24
2019-06-16 19:00:00 31.2 19 Sudoeste 34 Sudoeste 0 -- -- 22
2019-06-16 18:00:00 31.7 6 Este 23 Sur 0 -- -- 19
2019-06-16 17:00:00 31 15 Sur 30 Sur 0 -- -- 19
2019-06-16 16:00:00 30.1 14 Sudoeste 31 Nordeste 0 -- -- 18
2019-06-16 15:00:00 28.8 12 Sur 21 Sur 0 -- -- 21
2019-06-16 14:00:00 27.7 8 Este 20 Sudeste 0 -- -- 23
2019-06-16 13:00:00 26.5 9 Sudeste 16 Sudeste 0 -- -- 24
2019-06-16 12:00:00 24.7 4 Sudeste 10 Sudeste 0 -- -- 30
2019-06-16 11:00:00 22.4 4 Nordeste 11 Norte 0 -- -- 38
2019-06-16 10:00:00 19.7 3 Norte 6 Oeste 0 -- -- 46
2019-06-16 09:00:00 16.1 2 Norte 4 Nordeste 0 -- -- 58
2019-06-16 08:00:00 13.4 0 Calma 5 Oeste 0 -- -- 63
2019-06-16 07:00:00 12.5 3 Sudoeste 9 Sudoeste 0 -- -- 68
2019-06-16 06:00:00 13.3 3 Sudoeste 12 Sur 0 -- -- 66
2019-06-16 05:00:00 14.2 5 Sur 8 Sudoeste 0 -- -- 63
2019-06-16 04:00:00 14.8 2 Sur 8 Sudoeste 0 -- -- 61
2019-06-16 03:00:00 15.6 3 Sur 10 Sur 0 -- -- 58
2019-06-16 02:00:00 16.4 3 Sudoeste 8 Sudoeste 0 -- -- 55
2019-06-16 01:00:00 17.9 5 Oeste 19 Sudoeste 0 -- -- 51
2019-06-16 00:00:00 19.2 14 Sudoeste 24 Sudoeste 0 -- -- 42
2019-06-15 23:00:00 21.3 8 Sudoeste 10 Sudoeste 0 -- -- 29
2019-06-15 22:00:00 23.4 9 Sudoeste 14 Sudoeste 0 -- -- 27
2019-06-15 21:00:00 26.6 6 Oeste 18 Sudoeste 0 -- -- 24
2019-06-15 20:00:00 27.1 9 Sudoeste 18 Sur 0 -- -- 23
2019-06-15 19:00:00 27.2 8 Sur 19 Sudoeste 0 -- -- 24
2019-06-15 18:00:00 26.8 12 Noroeste 40 Sudoeste 0 -- -- 24
2019-06-15 17:00:00 26.7 11 Sudoeste 24 Oeste 0 -- -- 24
2019-06-15 16:00:00 25.3 12 Sudoeste 29 Oeste 0 -- -- 26
2019-06-15 15:00:00 24.3 9 Sur 20 Sudoeste 0 -- -- 28
2019-06-15 14:00:00 22.7 4 Sudeste 19 Noroeste 0 -- -- 31
2019-06-15 13:00:00 21.8 8 Sudoeste 20 Sudoeste 0 -- -- 33
2019-06-15 12:00:00 20.1 7 Noroeste 13 Norte 0 -- -- 39
2019-06-15 11:00:00 17.8 6 Sudeste 12 Sur 0 -- -- 47
2019-06-15 10:00:00 16.4 3 Noroeste 6 Norte 0 -- -- 52
2019-06-15 09:00:00 14.1 3 Noroeste 5 Oeste 0 -- -- 62
2019-06-15 08:00:00 11.4 4 Sudoeste 8 Este 0 -- -- 73
2019-06-15 07:00:00 9.5 3 Sudeste 8 Sudeste 0 -- -- 79
2019-06-15 06:00:00 10 3 Oeste 6 Oeste 0 -- -- 74
2019-06-15 05:00:00 10.9 2 Oeste 18 Sudoeste 0 -- -- 72
2019-06-15 04:00:00 11.4 11 Sudoeste 16 Sudoeste 0 -- -- 70
2019-06-15 03:00:00 12.1 5 Sudoeste 13 Sudoeste 0 -- -- 66
2019-06-15 02:00:00 13.4 11 Sudoeste 23 Oeste 0 -- -- 61
2019-06-15 01:00:00 13.9 12 Oeste 22 Oeste 0 -- -- 58
2019-06-15 00:00:00 14.9 13 Oeste 24 Sudoeste 0 -- -- 54
2019-06-14 23:00:00 15.8 13 Oeste 28 Oeste 0 -- -- 50
2019-06-14 22:00:00 17 16 Oeste 38 Sudoeste 0 -- -- 50
2019-06-14 21:00:00 18.7 22 Sudoeste 39 Sudoeste 0 -- -- 46
2019-06-14 20:00:00 19.6 26 Oeste 44 Sudoeste 0 -- -- 39
2019-06-14 19:00:00 21 23 Oeste 45 Sudoeste 0 -- -- 34
2019-06-14 18:00:00 21.6 24 Sudoeste 47 Sudoeste 0 -- -- 32
2019-06-14 17:00:00 21.7 25 Sudoeste 45 Sudoeste 0 -- -- 32
2019-06-14 16:00:00 22.5 22 Sudoeste 42 Oeste 0 -- -- 29
2019-06-14 15:00:00 23 21 Sudoeste 40 Sudoeste 0 -- -- 27
2019-06-14 14:00:00 20.3 9 Oeste 30 Oeste 0 -- -- 34
2019-06-14 13:00:00 19.7 7 Sudoeste 24 Sudoeste 0 -- -- 41
2019-06-14 12:00:00 18.6 6 Sur 13 Sudoeste 0 -- -- 46
2019-06-14 11:00:00 16 5 Nordeste 12 Oeste 0 -- -- 53
2019-06-14 10:00:00 13.4 4 Sudoeste 12 Sudoeste 0 -- -- 63
2019-06-14 09:00:00 10.9 6 Sur 13 Sudoeste 0 -- -- 72
2019-06-14 08:00:00 9.5 4 Sur 10 Sur 0 -- -- 79
2019-06-14 07:00:00 7.9 2 Sur 8 Sudoeste 0 -- -- 82
2019-06-14 06:00:00 8.7 6 Sudoeste 9 Sudoeste 0 -- -- 79
2019-06-14 05:00:00 9.5 4 Sudeste 14 Sudoeste 0 -- -- 75
2019-06-14 04:00:00 10.8 4 Sudeste 22 Sudoeste 0 -- -- 70
2019-06-14 03:00:00 11.8 16 Sudoeste 24 Sudoeste 0 -- -- 66
2019-06-14 02:00:00 13.3 14 Sudoeste 30 Sudoeste 0 -- -- 56
2019-06-14 01:00:00 14.4 21 Sudoeste 29 Sudoeste 0 -- -- 51
2019-06-14 00:00:00 16.1 19 Sudoeste 29 Sudoeste 0 -- -- 46
2019-06-13 23:00:00 17.9 21 Sudoeste 31 Sudoeste 0 -- -- 42
2019-06-13 22:00:00 20.8 19 Sudoeste 34 Sudoeste 0 -- -- 35
2019-06-13 21:00:00 24.6 20 Sudoeste 30 Sudoeste 0 -- -- 26
2019-06-13 20:00:00 26.1 17 Oeste 30 Sudoeste 0 -- -- 19
2019-06-13 19:00:00 27.2 12 Sudoeste 31 Oeste 0 -- -- 19
2019-06-13 18:00:00 27.5 20 Sudoeste 31 Sudoeste 0 -- -- 18
2019-06-13 17:00:00 26.9 8 Sudoeste 32 Sudoeste 0 -- -- 22
2019-06-13 16:00:00 26 17 Sudoeste 31 Sudoeste 0 -- -- 24
2019-06-13 15:00:00 24.5 8 Sudoeste 21 Sudoeste 0 -- -- 27
2019-06-13 14:00:00 23.3 11 Sudoeste 21 Sur 0 -- -- 30
2019-06-13 13:00:00 21.2 8 Nordeste 15 Nordeste 0 -- -- 35
2019-06-13 12:00:00 19.9 4 Sudoeste 15 Este 0 -- -- 39
2019-06-13 11:00:00 18.5 5 Este 13 Nordeste 0 -- -- 43
2019-06-13 10:00:00 16.1 2 Sur 7 Este 0 -- -- 51
2019-06-13 09:00:00 12.8 0 Calma 6 Sudoeste 0 -- -- 61
2019-06-13 08:00:00 10.1 3 Sudoeste 6 Sur 0 -- -- 68
2019-06-13 07:00:00 8.9 5 Sudoeste 10 Sur 0 -- -- 72
2019-06-13 06:00:00 9.4 5 Sur 9 Sudoeste 0 -- -- 70
2019-06-13 05:00:00 10 6 Sudoeste 13 Sudoeste 0 -- -- 67
2019-06-13 04:00:00 10.8 9 Sudoeste 15 Sur 0 -- -- 64
2019-06-13 03:00:00 11.9 12 Sudoeste 21 Sudoeste 0 -- -- 59
2019-06-13 02:00:00 13.5 14 Sudoeste 25 Sudoeste 0 -- -- 50
2019-06-13 01:00:00 15.1 18 Sudoeste 27 Sudoeste 0 -- -- 47
2019-06-13 00:00:00 16.8 14 Sudoeste 26 Sudoeste 0 -- -- 45
2019-06-12 23:00:00 18.5 18 Sudoeste 34 Sudoeste 0 -- -- 42
2019-06-12 22:00:00 21.1 22 Sudoeste 40 Sudoeste 0 -- -- 37
2019-06-12 21:00:00 25.2 23 Sudoeste 39 Sudoeste 0 -- -- 24
2019-06-12 20:00:00 26.9 12 Sudoeste 26 Sudoeste 0 -- -- 15
2019-06-12 19:00:00 27.2 15 Oeste 30 Oeste 0 -- -- 15
2019-06-12 18:00:00 26.9 13 Oeste 28 Sudoeste 0 -- -- 15
2019-06-12 17:00:00 27.5 13 Sudoeste 29 Sudoeste 0 -- -- 14
2019-06-12 16:00:00 26.6 12 Sudoeste 26 Sur 0 -- -- 15
2019-06-12 15:00:00 25.2 8 Sudeste 20 Sudeste 0 -- -- 17
2019-06-12 14:00:00 24.2 5 Oeste 14 Norte 0 -- -- 20
2019-06-12 13:00:00 23.2 8 Sur 23 Sudeste 0 -- -- 23
2019-06-12 12:00:00 21.4 6 Norte 17 Noroeste 0 -- -- 26
2019-06-12 11:00:00 19.5 9 Nordeste 16 Nordeste 0 -- -- 30
2019-06-12 10:00:00 17.7 9 Norte 17 Norte 0 -- -- 34
2019-06-12 09:00:00 15.9 0 Calma 6 Noroeste 0 -- -- 40
2019-06-12 08:00:00 13.8 3 Norte 12 Norte 0 -- -- 43
2019-06-12 07:00:00 11.9 7 Norte 12 Nordeste 0 -- -- 48
2019-06-12 06:00:00 12.4 6 Nordeste 13 Norte 0 -- -- 47
2019-06-12 05:00:00 13.3 8 Nordeste 13 Noroeste 0 -- -- 45
2019-06-12 04:00:00 14.7 9 Noroeste 17 Noroeste 0 -- -- 41
2019-06-12 03:00:00 15.4 6 Noroeste 21 Noroeste 0 -- -- 40
2019-06-12 02:00:00 16.1 12 Norte 20 Noroeste 0 -- -- 38
2019-06-12 01:00:00 16.6 9 Norte 17 Norte 0 -- -- 34
2019-06-12 00:00:00 18.2 9 Norte 15 Norte 0 -- -- 27
2019-06-11 23:00:00 19.2 6 Nordeste 13 Norte 0 -- -- 23
2019-06-11 22:00:00 21 11 Norte 26 Norte 0 -- -- 20
2019-06-11 21:00:00 23.2 22 Norte 35 Norte 0 -- -- 17
2019-06-11 20:00:00 24.1 18 Norte 40 Norte 0 -- -- 18
2019-06-11 19:00:00 24.3 22 Norte 41 Norte 0 -- -- 19
2019-06-11 18:00:00 24.3 21 Norte 43 Norte 0 -- -- 20
2019-06-11 17:00:00 24.4 17 Norte 41 Norte 0 -- -- 20
2019-06-11 16:00:00 24.4 26 Norte 48 Noroeste 0 -- -- 21
2019-06-11 15:00:00 23.6 23 Noroeste 39 Norte 0 -- -- 23
2019-06-11 14:00:00 22.2 15 Norte 40 Noroeste 0 -- -- 28
2019-06-11 13:00:00 21.3 23 Norte 48 Noroeste 0 -- -- 30
2019-06-11 12:00:00 20.6 23 Norte 37 Noroeste 0 -- -- 35
2019-06-11 11:00:00 18.5 10 Noroeste 27 Noroeste 0 -- -- 45
2019-06-11 10:00:00 18.1 17 Noroeste 35 Noroeste 0 -- -- 47
2019-06-11 09:00:00 16.5 25 Noroeste 40 Noroeste 0 -- -- 53
2019-06-11 08:00:00 15.3 20 Noroeste 29 Noroeste 0 -- -- 58
2019-06-11 07:00:00 13.2 6 Norte 12 Noroeste 0 -- -- 62
2019-06-11 06:00:00 13.1 5 Sudoeste 10 Sudoeste 0 -- -- 57
2019-06-11 05:00:00 12.9 4 Sur 14 Sudoeste 0 -- -- 57
2019-06-11 04:00:00 13.9 7 Sudoeste 16 Sudoeste 0 -- -- 54
2019-06-11 03:00:00 15.1 9 Oeste 22 Oeste 0 -- -- 49
2019-06-11 02:00:00 15.7 10 Sudoeste 23 Sudoeste 0 -- -- 49
2019-06-11 01:00:00 16.4 14 Sudoeste 22 Sudoeste 0 -- -- 48
2019-06-11 00:00:00 17.7 13 Sudoeste 23 Sudoeste 0 -- -- 46
2019-06-10 23:00:00 19.4 12 Oeste 25 Oeste 0 -- -- 43
2019-06-10 22:00:00 21.6 14 Oeste 43 Sudoeste 0 -- -- 38
2019-06-10 21:00:00 24.5 26 Sudoeste 39 Sudoeste 0 -- -- 32
2019-06-10 20:00:00 26.5 24 Sudoeste 36 Oeste 0 -- -- 25
2019-06-10 19:00:00 28.1 12 Oeste 28 Noroeste 0 -- -- 22
2019-06-10 18:00:00 27.6 15 Noroeste 32 Noroeste 0 -- -- 18
2019-06-10 17:00:00 27.6 16 Oeste 32 Noroeste 0 -- -- 19
2019-06-10 16:00:00 27.1 16 Noroeste 33 Noroeste 0 -- -- 20
2019-06-10 15:00:00 25.8 13 Oeste 32 Oeste 0 -- -- 22
2019-06-10 14:00:00 24.9 16 Noroeste 31 Norte 0 -- -- 25
2019-06-10 13:00:00 23.7 12 Noroeste 28 Noroeste 0 -- -- 28
2019-06-10 12:00:00 22.4 13 Noroeste 23 Noroeste 0 -- -- 33
2019-06-10 11:00:00 20.8 9 Noroeste 21 Noroeste 0 -- -- 38
2019-06-10 10:00:00 18.7 13 Noroeste 22 Noroeste 0 -- -- 46
2019-06-10 09:00:00 15.4 0 Calma 9 Sudoeste 0 -- -- 58
2019-06-10 08:00:00 12.7 3 Sur 9 Sudoeste 0 -- -- 68
2019-06-10 07:00:00 11.2 4 Sur 7 Sur 0 -- -- 73
2019-06-10 06:00:00 11.7 0 Calma 11 Sudoeste 0 -- -- 71
2019-06-10 05:00:00 12.4 5 Sudoeste 13 Sudoeste 0 -- -- 68
2019-06-10 04:00:00 13.2 4 Sudoeste 10 Sudoeste 0 -- -- 64
2019-06-10 03:00:00 14 5 Sudoeste 16 Sudoeste 0 -- -- 60
2019-06-10 02:00:00 14.8 12 Sudoeste 18 Oeste 0 -- -- 60
2019-06-10 01:00:00 15.6 12 Sudoeste 18 Sudoeste 0 -- -- 56
2019-06-10 00:00:00 17.2 8 Oeste 18 Oeste 0 -- -- 51
2019-06-09 23:00:00 18.8 13 Oeste 26 Oeste 0 -- -- 46
2019-06-09 22:00:00 20.4 12 Oeste 35 Sudoeste 0 -- -- 41
2019-06-09 21:00:00 22.9 23 Sudoeste 40 Oeste 0 -- -- 34
2019-06-09 20:00:00 24.5 24 Oeste 39 Sudoeste 0 -- -- 30
2019-06-09 19:00:00 25.8 21 Sudoeste 41 Sudoeste 0 -- -- 27
2019-06-09 18:00:00 26.8 21 Oeste 43 Oeste 0 -- -- 24
2019-06-09 17:00:00 27.6 21 Sudoeste 43 Oeste 0 -- -- 23
2019-06-09 16:00:00 26.4 17 Oeste 36 Sudoeste 0 -- -- 25
2019-06-09 15:00:00 26.1 17 Sudoeste 36 Sudoeste 0 -- -- 25
2019-06-09 14:00:00 25.5 11 Oeste 31 Oeste 0 -- -- 25
2019-06-09 13:00:00 24.1 14 Oeste 27 Sudoeste 0 -- -- 24
2019-06-09 12:00:00 21.9 6 Oeste 20 Oeste 0 -- -- 34
2019-06-09 11:00:00 19.6 5 Sudoeste 13 Sur 0 -- -- 42
2019-06-09 10:00:00 16.6 2 Sudeste 8 Oeste 0 -- -- 49
2019-06-09 09:00:00 12.1 4 Sudoeste 12 Sudoeste 0 -- -- 60
2019-06-09 08:00:00 10.3 5 Sudoeste 10 Sudoeste 0 -- -- 65
2019-06-09 07:00:00 9 2 Oeste 14 Sudoeste 0 -- -- 69
2019-06-09 06:00:00 9.6 7 Sudoeste 13 Sudoeste 0 -- -- 67
2019-06-09 05:00:00 10.4 6 Sudoeste 10 Sudoeste 0 -- -- 63
2019-06-09 04:00:00 11.5 6 Sudoeste 18 Sudoeste 0 -- -- 60
2019-06-09 03:00:00 12.9 12 Sudoeste 18 Sudoeste 0 -- -- 55
2019-06-09 02:00:00 14.1 10 Sudoeste 22 Sudoeste 0 -- -- 54
2019-06-09 01:00:00 15.5 11 Sudoeste 18 Sudoeste 0 -- -- 52
2019-06-09 00:00:00 17.6 13 Oeste 22 Sudoeste 0 -- -- 51
2019-06-08 23:00:00 19.6 15 Oeste 35 Sudoeste 0 -- -- 46
2019-06-08 22:00:00 22.4 21 Sudoeste 34 Sudoeste 0 -- -- 39
2019-06-08 21:00:00 25 19 Sudoeste 31 Sudoeste 0 -- -- 29
2019-06-08 20:00:00 25.4 14 Oeste 24 Sudoeste 0 -- -- 19
2019-06-08 19:00:00 26.6 17 Sudoeste 32 Sudoeste 0 -- -- 18
2019-06-08 18:00:00 27.7 13 Oeste 30 Sudoeste 0 -- -- 18
2019-06-08 17:00:00 28.1 8 Sudoeste 26 Sur 0 -- -- 17
2019-06-08 16:00:00 27.2 11 Sur 19 Sudoeste 0 -- -- 18
2019-06-08 15:00:00 26.9 8 Sur 26 Sur 0 -- -- 20
2019-06-08 14:00:00 24.7 10 Este 21 Este 0 -- -- 23
2019-06-08 13:00:00 23.6 5 Sudeste 21 Este 0 -- -- 27
2019-06-08 12:00:00 21.2 9 Nordeste 23 Nordeste 0 -- -- 31
2019-06-08 11:00:00 20.4 7 Este 18 Norte 0 -- -- 33
2019-06-08 10:00:00 18.1 9 Norte 17 Norte 0 -- -- 41
2019-06-08 09:00:00 15.1 3 Oeste 6 Oeste 0 -- -- 50
2019-06-08 08:00:00 13.5 0 Calma 5 Norte 0 -- -- 54
2019-06-08 07:00:00 11.2 3 Norte 6 Norte 0 -- -- 61
2019-06-08 06:00:00 11.5 2 Noroeste 6 Noroeste 0 -- -- 59
2019-06-08 05:00:00 12.3 3 Noroeste 7 Noroeste 0 -- -- 57
2019-06-08 04:00:00 13.2 5 Noroeste 19 Norte 0 -- -- 54
2019-06-08 03:00:00 13.6 9 Noroeste 18 Noroeste 0 -- -- 52
2019-06-08 02:00:00 14.4 7 Norte 17 Noroeste 0 -- -- 49
2019-06-08 01:00:00 15.2 12 Noroeste 19 Noroeste 0 -- -- 47
2019-06-08 00:00:00 15.7 9 Noroeste 14 Noroeste 0 -- -- 43
2019-06-07 23:00:00 16.8 9 Noroeste 15 Noroeste 0 -- -- 38
2019-06-07 22:00:00 18.8 10 Norte 22 Noroeste 0 -- -- 33
2019-06-07 21:00:00 21.7 10 Noroeste 23 Noroeste 0 -- -- 29
2019-06-07 20:00:00 22.6 8 Oeste 27 Norte 0 -- -- 28
2019-06-07 19:00:00 23.3 9 Oeste 23 Noroeste 0 -- -- 27
2019-06-07 18:00:00 23.3 10 Sudoeste 33 Oeste 0 -- -- 26
2019-06-07 17:00:00 22.5 8 Noroeste 28 Noroeste 0 -- -- 27
2019-06-07 16:00:00 21.9 10 Oeste 25 Noroeste 0 -- -- 29
2019-06-07 15:00:00 20.8 9 Oeste 28 Noroeste 0 -- -- 31
2019-06-07 14:00:00 18.8 13 Noroeste 25 Noroeste 0 -- -- 39
2019-06-07 13:00:00 17.6 7 Norte 27 Sudoeste 0 -- -- 42
2019-06-07 12:00:00 17 5 Noroeste 19 Sudoeste 0 -- -- 49
2019-06-07 11:00:00 15.8 5 Oeste 17 Noroeste 0 -- -- 50
2019-06-07 10:00:00 13.7 9 Sudoeste 18 Sudoeste 0 -- -- 69
2019-06-07 09:00:00 11.1 7 Sudoeste 12 Sur 0 -- -- 83
2019-06-07 08:00:00 9.7 3 Oeste 8 Oeste 0 -- -- 89
2019-06-07 07:00:00 8.1 3 Sur 5 Sudeste 0 -- -- 91
2019-06-07 06:00:00 8.6 0 Calma 22 Sudoeste 0 -- -- 90
2019-06-07 05:00:00 9 13 Sudoeste 22 Sudoeste 0 -- -- 91
2019-06-07 04:00:00 9.5 18 Sudoeste 29 Sudoeste 0 -- -- 90
2019-06-07 03:00:00 9.9 18 Sudoeste 24 Sudoeste 0 -- -- 91
2019-06-07 02:00:00 10.7 17 Sudoeste 27 Sudoeste 0 -- -- 90
2019-06-07 01:00:00 11.5 18 Sudoeste 29 Sudoeste 0 -- -- 90
2019-06-07 00:00:00 12.4 19 Sudoeste 32 Sudoeste 0 -- -- 88
2019-06-06 23:00:00 12.9 21 Sudoeste 48 Oeste 0.2 -- -- 83
2019-06-06 22:00:00 15.7 25 Sudoeste 49 Sudoeste 0 -- -- 77
2019-06-06 21:00:00 17.7 31 Sudoeste 54 Sudoeste 0 -- -- 60
2019-06-06 20:00:00 19.2 32 Sudoeste 51 Sudoeste 0 -- -- 53
2019-06-06 19:00:00 20.7 31 Sudoeste 51 Sudoeste 0 -- -- 44
2019-06-06 18:00:00 21.5 29 Sudoeste 52 Sudoeste 0 -- -- 39
2019-06-06 17:00:00 22.4 27 Sur 48 Sur 0 -- -- 35
2019-06-06 16:00:00 22.5 26 Sudoeste 46 Sur 0 -- -- 35
2019-06-06 15:00:00 22 21 Sudoeste 42 Sur 0 -- -- 35
2019-06-06 14:00:00 20.2 18 Sur 34 Sur 0 -- -- 39
2019-06-06 13:00:00 18.3 14 Sudoeste 25 Sudoeste 0 -- -- 45
2019-06-06 12:00:00 17.2 13 Sudoeste 27 Sudoeste 0 -- -- 48
2019-06-06 11:00:00 15.9 12 Sudoeste 21 Sudoeste 0 -- -- 49
2019-06-06 10:00:00 13.6 3 Oeste 8 Sudoeste 0 -- -- 57
2019-06-06 09:00:00 10.7 6 Sudoeste 11 Sudoeste 0 -- -- 70
2019-06-06 08:00:00 9.7 4 Oeste 13 Sudoeste 0 -- -- 73
2019-06-06 07:00:00 8.6 10 Sudoeste 17 Sudoeste 0 -- -- 77
2019-06-06 06:00:00 8.5 4 Oeste 17 Sudoeste 0 -- -- 75
2019-06-06 05:00:00 9.4 10 Sudoeste 19 Sudoeste 0 -- -- 71
2019-06-06 04:00:00 10.1 15 Sudoeste 20 Sudoeste 0 -- -- 66
2019-06-06 03:00:00 10.7 14 Sudoeste 19 Sudoeste 0 -- -- 61
2019-06-06 02:00:00 11.3 13 Sudoeste 19 Sudoeste 0 -- -- 58
2019-06-06 01:00:00 12.4 12 Sudoeste 22 Oeste 0 -- -- 53
2019-06-06 00:00:00 13.7 13 Oeste 19 Sudoeste 0 -- -- 49
2019-06-05 23:00:00 14.7 9 Oeste 21 Oeste 0 -- -- 45
2019-06-05 22:00:00 16.3 13 Oeste 26 Oeste 0 -- -- 37
2019-06-05 21:00:00 18.1 15 Oeste 36 Oeste 0 -- -- 34
2019-06-05 20:00:00 19.5 17 Oeste 36 Sudoeste 0 -- -- 32
2019-06-05 19:00:00 21.5 19 Oeste 39 Oeste 0 -- -- 27
2019-06-05 18:00:00 22.6 23 Sudoeste 41 Sudoeste 0 -- -- 27
2019-06-05 17:00:00 22.6 24 Sudoeste 39 Sudoeste 0 -- -- 27
2019-06-05 16:00:00 22.3 19 Sudoeste 39 Sudoeste 0 -- -- 27
2019-06-05 15:00:00 21.7 27 Sudoeste 39 Sudoeste 0 -- -- 32
2019-06-05 14:00:00 20.1 12 Noroeste 28 Noroeste 0 -- -- 33
2019-06-05 13:00:00 18.9 11 Oeste 33 Noroeste 0 -- -- 37
2019-06-05 12:00:00 17.6 18 Noroeste 33 Noroeste 0 -- -- 40
2019-06-05 11:00:00 16.1 13 Oeste 31 Noroeste 0 -- -- 47
2019-06-05 10:00:00 15.4 16 Noroeste 27 Noroeste 0 -- -- 51
2019-06-05 09:00:00 13.7 10 Oeste 17 Oeste 0 -- -- 59
2019-06-05 08:00:00 11.5 4 Oeste 14 Sudoeste 0 -- -- 68
2019-06-05 07:00:00 10.4 14 Oeste 22 Sudoeste 0 -- -- 72
2019-06-05 06:00:00 10.2 10 Oeste 19 Oeste 0 -- -- 73
2019-06-05 05:00:00 11.3 9 Oeste 18 Oeste 0 -- -- 68
2019-06-05 04:00:00 11.4 11 Oeste 23 Oeste 0 -- -- 67
2019-06-05 03:00:00 12.1 15 Oeste 20 Oeste 0 -- -- 63
2019-06-05 02:00:00 12.8 15 Oeste 22 Sudoeste 0 -- -- 63
2019-06-05 01:00:00 13.2 15 Oeste 26 Oeste 0 -- -- 61
2019-06-05 00:00:00 14.6 16 Oeste 27 Sudoeste 0 -- -- 53
2019-06-04 23:00:00 15.3 17 Sudoeste 33 Sudoeste 0 -- -- 48
2019-06-04 22:00:00 17.1 22 Oeste 37 Oeste 0 -- -- 45
2019-06-04 21:00:00 19.4 23 Oeste 43 Oeste 0 -- -- 43
2019-06-04 20:00:00 21.5 26 Oeste 41 Sudoeste 0 -- -- 42
2019-06-04 19:00:00 21.1 23 Sudoeste 36 Sudoeste 0 -- -- 48
2019-06-04 18:00:00 20.8 24 Oeste 47 Sudoeste 0 -- -- 54
2019-06-04 17:00:00 23 31 Sudoeste 51 Sudoeste 0 -- -- 51
2019-06-04 16:00:00 24.8 26 Oeste 40 Sudoeste 0 -- -- 41
2019-06-04 15:00:00 25.2 23 Sudoeste 42 Sudoeste 0 -- -- 40
2019-06-04 14:00:00 24.2 16 Oeste 36 Sudoeste 0 -- -- 41
2019-06-04 13:00:00 23.8 13 Oeste 30 Sudoeste 0 -- -- 42
2019-06-04 12:00:00 22.3 14 Sudoeste 27 Oeste 0 -- -- 47
2019-06-04 11:00:00 20.8 14 Sudoeste 27 Sudoeste 0 -- -- 52
2019-06-04 10:00:00 18.9 13 Oeste 23 Sudoeste 0 -- -- 57
2019-06-04 09:00:00 16.6 13 Sudoeste 24 Sudoeste 0 -- -- 71
2019-06-04 08:00:00 14.5 18 Sudoeste 23 Sudoeste 0 -- -- 81
2019-06-04 07:00:00 14.2 10 Sudoeste 18 Sudoeste 0 -- -- 82
2019-06-04 06:00:00 14.7 12 Sudoeste 19 Sudoeste 0 -- -- 84
2019-06-04 05:00:00 15.6 13 Sudoeste 20 Sudoeste 0 -- -- 82
2019-06-04 04:00:00 16.5 12 Sur 20 Sudoeste 0 -- -- 78
2019-06-04 03:00:00 17.5 15 Sudoeste 21 Sudoeste 0 -- -- 71
2019-06-04 02:00:00 18.6 12 Sudoeste 18 Sudoeste 0 -- -- 66
2019-06-04 01:00:00 19.9 15 Sudoeste 24 Oeste 0 -- -- 62
2019-06-04 00:00:00 21.5 12 Oeste 25 Oeste 0 -- -- 57
2019-06-03 23:00:00 23.2 12 Oeste 31 Oeste 0 -- -- 52
2019-06-03 22:00:00 25.4 17 Oeste 32 Sudoeste 0 -- -- 42
2019-06-03 21:00:00 28 24 Sudoeste 42 Sudoeste 0 -- -- 38
2019-06-03 20:00:00 29.9 26 Sudoeste 43 Sudoeste 0 -- -- 34
2019-06-03 19:00:00 31.3 26 Sudoeste 42 Sudoeste 0 -- -- 31
2019-06-03 18:00:00 31.9 26 Sudoeste 40 Sudoeste 0 -- -- 27
2019-06-03 17:00:00 32.9 21 Sudoeste 41 Sudoeste 0 -- -- 22
2019-06-03 16:00:00 32.3 22 Sudoeste 37 Sudoeste 0 -- -- 20
2019-06-03 15:00:00 31.8 21 Sudoeste 33 Sudoeste 0 -- -- 16
2019-06-03 14:00:00 31.5 12 Sudoeste 26 Sudoeste 0 -- -- 16
2019-06-03 13:00:00 30 13 Sudoeste 23 Sudoeste 0 -- -- 19
2019-06-03 12:00:00 28.2 9 Sur 21 Sudeste 0 -- -- 23
2019-06-03 11:00:00 26 5 Sur 13 Sur 0 -- -- 30
2019-06-03 10:00:00 23.5 4 Sur 9 Sudoeste 0 -- -- 34
2019-06-03 09:00:00 21.1 0 Calma 5 Noroeste 0 -- -- 39
2019-06-03 08:00:00 18.4 2 Oeste 10 Sudoeste 0 -- -- 45
2019-06-03 07:00:00 17.8 0 Calma 5 Oeste 0 -- -- 46
2019-06-03 06:00:00 18.9 2 Oeste 18 Sudoeste 0 -- -- 44
2019-06-03 05:00:00 19.8 10 Sudoeste 18 Sudoeste 0 -- -- 41
2019-06-03 04:00:00 20.4 8 Sur 12 Sur 0 -- -- 39
2019-06-03 03:00:00 21.1 10 Sudoeste 18 Sudoeste 0 -- -- 37
2019-06-03 02:00:00 21.3 6 Sudoeste 12 Sudoeste 0 -- -- 37
2019-06-03 01:00:00 22.1 4 Sudoeste 19 Sudoeste 0 -- -- 36
2019-06-03 00:00:00 23.6 15 Sudoeste 20 Sudoeste 0 -- -- 33
2019-06-02 23:00:00 25.5 11 Oeste 28 Oeste 0 -- -- 28
2019-06-02 22:00:00 27.6 17 Oeste 28 Oeste 0 -- -- 26
2019-06-02 21:00:00 29.9 20 Oeste 36 Oeste 0 -- -- 23
2019-06-02 20:00:00 32.3 24 Sudoeste 44 Oeste 0 -- -- 16
2019-06-02 19:00:00 34.8 20 Oeste 40 Sudoeste 0 -- -- 15
2019-06-02 18:00:00 36.2 18 Sudoeste 45 Sudoeste 0 -- -- 14
2019-06-02 17:00:00 36.4 19 Sudoeste 42 Sur 0 -- -- 14
2019-06-02 16:00:00 36 10 Sudoeste 38 Sudoeste 0 -- -- 14
2019-06-02 15:00:00 35.5 17 Oeste 33 Oeste 0 -- -- 15
2019-06-02 14:00:00 34.8 10 Oeste 23 Sudoeste 0 -- -- 15
2019-06-02 13:00:00 33.9 8 Sudoeste 20 Sudoeste 0 -- -- 16
2019-06-02 12:00:00 32.6 4 Oeste 11 Sudoeste 0 -- -- 17
2019-06-02 11:00:00 30.4 3 Norte 8 Noroeste 0 -- -- 18
2019-06-02 10:00:00 28 3 Norte 6 Este 0 -- -- 24
2019-06-02 09:00:00 25.5 3 Sudoeste 6 Este 0 -- -- 29
2019-06-02 08:00:00 21.9 4 Sur 5 Sudoeste 0 -- -- 35
2019-06-02 07:00:00 21.4 3 Sur 9 Sudoeste 0 -- -- 34
2019-06-02 06:00:00 21.6 5 Sur 11 Norte 0 -- -- 35
2019-06-02 05:00:00 22.6 5 Norte 8 Norte 0 -- -- 31
2019-06-02 04:00:00 23.2 5 Norte 10 Nordeste 0 -- -- 32
2019-06-02 03:00:00 24.9 9 Norte 10 Norte 0 -- -- 29
2019-06-02 02:00:00 24.5 0 Calma 9 Oeste 0 -- -- 32
2019-06-02 01:00:00 25.8 6 Oeste 11 Oeste 0 -- -- 30
2019-06-02 00:00:00 27.1 6 Noroeste 15 Oeste 0 -- -- 29
2019-06-01 23:00:00 28.7 9 Oeste 25 Oeste 0 -- -- 26
2019-06-01 22:00:00 31.3 8 Nordeste 13 Nordeste 0 -- -- 19
2019-06-01 21:00:00 34.6 5 Nordeste 12 Este 0 -- -- 16
2019-06-01 20:00:00 35.9 5 Norte 18 Este 0 -- -- 15
2019-06-01 19:00:00 35.8 11 Este 22 Sudeste 0 -- -- 15
2019-06-01 18:00:00 36 7 Este 22 Sudeste 0 -- -- 15
2019-06-01 17:00:00 35.4 6 Nordeste 23 Nordeste 0 -- -- 16
2019-06-01 16:00:00 36.8 8 Oeste 19 Este 0 -- -- 16
2019-06-01 15:00:00 34.5 5 Nordeste 23 Sudeste 0 -- -- 17
2019-06-01 14:00:00 33.4 8 Sudeste 24 Este 0 -- -- 19
2019-06-01 13:00:00 31.5 9 Este 23 Este 0 -- -- 22
2019-06-01 12:00:00 29.9 11 Este 26 Este 0 -- -- 24
2019-06-01 11:00:00 27.5 14 Este 24 Nordeste 0 -- -- 27
2019-06-01 10:00:00 25.3 11 Este 23 Este 0 -- -- 30
2019-06-01 09:00:00 23.4 12 Este 22 Este 0 -- -- 33
2019-06-01 08:00:00 20.9 13 Este 17 Este 0 -- -- 42
2019-06-01 07:00:00 19.8 10 Este 13 Este 0 -- -- 45
2019-06-01 06:00:00 21.4 2 Nordeste 13 Nordeste 0 -- -- 40
2019-06-01 05:00:00 21.3 5 Nordeste 12 Nordeste 0 -- -- 38
2019-06-01 04:00:00 21.8 12 Este 20 Este 0 -- -- 37
2019-06-01 03:00:00 24.6 5 Norte 12 Nordeste 0 -- -- 31
2019-06-01 02:00:00 23.8 4 Nordeste 8 Nordeste 0 -- -- 29
2019-06-01 01:00:00 25.3 4 Noroeste 6 Noroeste 0 -- -- 27
2019-06-01 00:00:00 26.2 4 Norte 6 Sudeste 0 -- -- 24
2019-05-31 23:00:00 28.9 6 Sudeste 10 Sudeste 0 -- -- 20
2019-05-31 22:00:00 30 8 Sudeste 10 Sudeste 0 -- -- 19
2019-05-31 21:00:00 33.4 7 Este 15 Este 0 -- -- 16
2019-05-31 20:00:00 34.2 9 Nordeste 24 Nordeste 0 -- -- 16
2019-05-31 19:00:00 34.8 11 Este 20 Este 0 -- -- 14
2019-05-31 18:00:00 34.7 9 Norte 28 Noroeste 0 -- -- 14
2019-05-31 17:00:00 34.8 10 Noroeste 28 Noroeste 0 -- -- 15
2019-05-31 16:00:00 34.7 10 Noroeste 26 Este 0 -- -- 16
2019-05-31 15:00:00 33.6 10 Este 22 Nordeste 0 -- -- 17
2019-05-31 14:00:00 32.6 10 Este 37 Nordeste 0 -- -- 18
2019-05-31 13:00:00 31.2 7 Nordeste 18 Nordeste 0 -- -- 21
2019-05-31 12:00:00 29.5 9 Nordeste 19 Nordeste 0 -- -- 23
2019-05-31 11:00:00 27.3 8 Este 15 Este 0 -- -- 26
2019-05-31 10:00:00 25.3 5 Este 14 Nordeste 0 -- -- 28
2019-05-31 09:00:00 23 7 Nordeste 13 Nordeste 0 -- -- 32
2019-05-31 08:00:00 20.3 4 Nordeste 15 Nordeste 0 -- -- 41
2019-05-31 07:00:00 20.1 8 Este 17 Nordeste 0 -- -- 37
2019-05-31 06:00:00 20.3 9 Este 19 Este 0 -- -- 37
2019-05-31 05:00:00 20.9 16 Este 21 Este 0 -- -- 37
2019-05-31 04:00:00 21.1 9 Este 22 Este 0 -- -- 38
2019-05-31 03:00:00 21.9 5 Nordeste 12 Nordeste 0 -- -- 34
2019-05-31 02:00:00 23 7 Norte 11 Norte 0 -- -- 33
2019-05-31 01:00:00 23.5 2 Noroeste 10 Este 0 -- -- 30
2019-05-31 00:00:00 25.9 7 Nordeste 12 Este 0 -- -- 27
2019-05-30 23:00:00 26.9 10 Este 13 Este 0 -- -- 25
2019-05-30 22:00:00 28.7 10 Este 12 Este 0 -- -- 23
2019-05-30 21:00:00 32 5 Este 18 Este 0 -- -- 19
2019-05-30 20:00:00 32.9 7 Este 20 Este 0 -- -- 17
2019-05-30 19:00:00 33.2 10 Este 22 Nordeste 0 -- -- 15
2019-05-30 18:00:00 33.1 9 Este 39 Nordeste 0 -- -- 13
2019-05-30 17:00:00 32.2 10 Nordeste 22 Nordeste 0 -- -- 16
2019-05-30 16:00:00 31.4 11 Este 25 Nordeste 0 -- -- 18
2019-05-30 15:00:00 30.6 12 Norte 39 Este 0 -- -- 21
2019-05-30 14:00:00 29.2 12 Nordeste 30 Nordeste 0 -- -- 22
2019-05-30 13:00:00 27.6 13 Nordeste 30 Nordeste 0 -- -- 25
2019-05-30 12:00:00 26 14 Nordeste 35 Nordeste 0 -- -- 28
2019-05-30 11:00:00 25 16 Nordeste 36 Nordeste 0 -- -- 29
2019-05-30 10:00:00 23 21 Nordeste 35 Este 0 -- -- 32
2019-05-30 09:00:00 21.3 19 Este 31 Nordeste 0 -- -- 34
2019-05-30 08:00:00 19.6 12 Nordeste 28 Nordeste 0 -- -- 38
2019-05-30 07:00:00 18.7 12 Nordeste 22 Nordeste 0 -- -- 38
2019-05-30 06:00:00 19.3 9 Nordeste 20 Nordeste 0 -- -- 34
2019-05-30 05:00:00 19.2 10 Nordeste 17 Nordeste 0 -- -- 34
2019-05-30 04:00:00 21.2 15 Nordeste 25 Nordeste 0 -- -- 30
2019-05-30 03:00:00 21.6 11 Nordeste 22 Nordeste 0 -- -- 30
2019-05-30 02:00:00 21.8 9 Nordeste 29 Nordeste 0 -- -- 30
2019-05-30 01:00:00 23 19 Nordeste 31 Nordeste 0 -- -- 31
2019-05-30 00:00:00 23.8 15 Nordeste 26 Nordeste 0 -- -- 29
2019-05-29 23:00:00 24.7 13 Nordeste 24 Nordeste 0 -- -- 27
2019-05-29 22:00:00 26.3 12 Nordeste 25 Nordeste 0 -- -- 25
2019-05-29 21:00:00 28.9 17 Nordeste 28 Nordeste 0 -- -- 21
2019-05-29 20:00:00 30.1 18 Este 30 Norte 0 -- -- 18
2019-05-29 19:00:00 30.9 12 Nordeste 28 Nordeste 0 -- -- 20
2019-05-29 18:00:00 30.6 15 Norte 29 Nordeste 0 -- -- 22
2019-05-29 17:00:00 30.2 12 Nordeste 27 Nordeste 0 -- -- 22
2019-05-29 16:00:00 29.4 12 Este 28 Nordeste 0 -- -- 23
2019-05-29 15:00:00 28.2 15 Nordeste 30 Nordeste 0 -- -- 25
2019-05-29 14:00:00 26.4 17 Nordeste 32 Nordeste 0 -- -- 27
2019-05-29 13:00:00 24.5 18 Nordeste 34 Nordeste 0 -- -- 29
2019-05-29 12:00:00 23 17 Nordeste 32 Nordeste 0 -- -- 31
2019-05-29 11:00:00 21.4 16 Nordeste 31 Nordeste 0 -- -- 32
2019-05-29 10:00:00 20 15 Nordeste 30 Nordeste 0 -- -- 34
2019-05-29 09:00:00 18.6 18 Nordeste 28 Nordeste 0 -- -- 36
2019-05-29 08:00:00 17.6 9 Nordeste 23 Nordeste 0 -- -- 37
2019-05-29 07:00:00 16.7 9 Nordeste 29 Nordeste 0 -- -- 38
2019-05-29 06:00:00 18.1 19 Nordeste 28 Nordeste 0 -- -- 36
2019-05-29 05:00:00 18.6 18 Nordeste 36 Nordeste 0 -- -- 37
2019-05-29 04:00:00 19.1 17 Nordeste 27 Nordeste 0 -- -- 36
2019-05-29 03:00:00 20.3 17 Nordeste 26 Nordeste 0 -- -- 33
2019-05-29 02:00:00 21.1 14 Nordeste 23 Norte 0 -- -- 30
2019-05-29 01:00:00 21.9 14 Nordeste 22 Norte 0 -- -- 29
2019-05-29 00:00:00 22.3 13 Norte 32 Norte 0 -- -- 28
2019-05-28 23:00:00 24.5 22 Norte 38 Norte 0 -- -- 24
2019-05-28 22:00:00 25.2 18 Norte 38 Norte 0 -- -- 25
2019-05-28 21:00:00 27.3 26 Norte 38 Norte 0 -- -- 22
2019-05-28 20:00:00 28.9 18 Norte 36 Norte 0 -- -- 21
2019-05-28 19:00:00 29.6 20 Norte 32 Norte 0 -- -- 19
2019-05-28 18:00:00 30 16 Norte 34 Nordeste 0 -- -- 18
2019-05-28 17:00:00 29.4 22 Norte 39 Noroeste 0 -- -- 16
2019-05-28 16:00:00 29.8 21 Norte 39 Norte 0 -- -- 16
2019-05-28 15:00:00 29.1 24 Norte 36 Noroeste 0 -- -- 18
2019-05-28 14:00:00 28 19 Norte 33 Norte 0 -- -- 21
2019-05-28 13:00:00 26.8 18 Norte 32 Nordeste 0 -- -- 28
2019-05-28 12:00:00 25.5 19 Nordeste 32 Norte 0 -- -- 32
2019-05-28 11:00:00 24.2 13 Nordeste 33 Nordeste 0 -- -- 37
2019-05-28 10:00:00 21.8 17 Norte 26 Norte 0 -- -- 43
2019-05-28 09:00:00 20.1 10 Norte 24 Nordeste 0 -- -- 49
2019-05-28 08:00:00 18 12 Nordeste 21 Nordeste 0 -- -- 53
2019-05-28 07:00:00 16.6 3 Norte 12 Norte 0 -- -- 56
2019-05-28 06:00:00 17.5 8 Norte 14 Norte 0 -- -- 52
2019-05-28 05:00:00 18.3 7 Norte 12 Norte 0 -- -- 50
2019-05-28 04:00:00 19 10 Norte 14 Norte 0 -- -- 49
2019-05-28 03:00:00 20.4 12 Norte 23 Noroeste 0 -- -- 46
2019-05-28 02:00:00 21.5 12 Noroeste 34 Norte 0 -- -- 44
2019-05-28 01:00:00 22.3 17 Noroeste 31 Noroeste 0 -- -- 49
2019-05-28 00:00:00 23.5 23 Noroeste 37 Noroeste 0 -- -- 51